LUX weather

Luxembourg-Findel International Airport
Luxembourg, Luxembourg, Luxembourg

Public forecast

Using degrees Celsius for public forecast. Weather courtesy of forecast.io.

Current aviation weather report (METAR) for Luxembourg-Findel International Airport

Retrieved 2020/04/06 18:50 UTC (15 minutes ago):

ELLX 061850Z 27004KT CAVOK 17/01 Q1024 NOSIG

Aviation forecast (TAF) for Luxembourg-Findel International Airport

Retrieved 2020/04/06 18:27 UTC (38 minutes ago):

TAF ELLX 061700Z 0618/0724 24007KT CAVOK BECMG 0700/0703 04005KT